sensor_id;sensor_type;location;lat;lon;timestamp;pressure;altitude;pressure_sealevel;temperature;humidity
72942;BME280;69665;55.822;37.330;2024-01-15T00:02:05;97502.94;;;-5.86;61.95
72942;BME280;69665;55.822;37.330;2024-01-15T00:04:38;97503.78;;;-5.84;62.18
72942;BME280;69665;55.822;37.330;2024-01-15T00:07:05;97488.53;;;-5.96;62.40
72942;BME280;69665;55.822;37.330;2024-01-15T00:09:31;97505.50;;;-5.83;62.45
72942;BME280;69665;55.822;37.330;2024-01-15T00:11:56;97496.94;;;-5.78;62.55
72942;BME280;69665;55.822;37.330;2024-01-15T00:14:22;97486.69;;;-5.78;62.73
72942;BME280;69665;55.822;37.330;2024-01-15T00:16:49;97490.06;;;-5.76;62.30
72942;BME280;69665;55.822;37.330;2024-01-15T00:19:22;97487.50;;;-5.75;62.56
72942;BME280;69665;55.822;37.330;2024-01-15T00:21:50;97472.13;;;-5.76;62.30
72942;BME280;69665;55.822;37.330;2024-01-15T00:24:16;97490.81;;;-5.65;62.42
72942;BME280;69665;55.822;37.330;2024-01-15T00:26:44;97489.94;;;-5.64;62.78
72942;BME280;69665;55.822;37.330;2024-01-15T00:29:10;97493.34;;;-5.62;61.74
72942;BME280;69665;55.822;37.330;2024-01-15T00:31:35;97474.63;;;-5.69;61.88
72942;BME280;69665;55.822;37.330;2024-01-15T00:34:02;97448.28;;;-5.83;62.41
72942;BME280;69665;55.822;37.330;2024-01-15T00:36:28;97479.66;;;-5.60;61.69
72942;BME280;69665;55.822;37.330;2024-01-15T00:38:54;97475.41;;;-5.61;61.92
72942;BME280;69665;55.822;37.330;2024-01-15T00:41:20;97478.00;;;-5.65;62.11
72942;BME280;69665;55.822;37.330;2024-01-15T00:43:46;97456.78;;;-5.78;62.38
72942;BME280;69665;55.822;37.330;2024-01-15T00:46:15;97452.50;;;-5.79;62.26
72942;BME280;69665;55.822;37.330;2024-01-15T00:48:40;97471.19;;;-5.66;61.72
72942;BME280;69665;55.822;37.330;2024-01-15T00:51:06;97473.75;;;-5.66;62.70
72942;BME280;69665;55.822;37.330;2024-01-15T00:53:32;97466.03;;;-5.65;62.44
72942;BME280;69665;55.822;37.330;2024-01-15T00:55:57;97466.00;;;-5.60;62.34
72942;BME280;69665;55.822;37.330;2024-01-15T00:58:23;97457.44;;;-5.59;62.04
72942;BME280;69665;55.822;37.330;2024-01-15T01:00:48;97438.66;;;-5.61;61.93
72942;BME280;69665;55.822;37.330;2024-01-15T01:03:14;97452.25;;;-5.50;62.28
72942;BME280;69665;55.822;37.330;2024-01-15T01:05:40;97448.78;;;-5.46;61.60
72942;BME280;69665;55.822;37.330;2024-01-15T01:08:05;97429.22;;;-5.56;62.02
72942;BME280;69665;55.822;37.330;2024-01-15T01:10:31;97438.63;;;-5.55;61.77
72942;BME280;69665;55.822;37.330;2024-01-15T01:12:56;97425.84;;;-5.61;63.92
72942;BME280;69665;55.822;37.330;2024-01-15T01:15:22;97413.13;;;-5.70;63.21
72942;BME280;69665;55.822;37.330;2024-01-15T01:17:48;97433.50;;;-5.57;63.06
72942;BME280;69665;55.822;37.330;2024-01-15T01:20:13;97431.75;;;-5.52;63.37
72942;BME280;69665;55.822;37.330;2024-01-15T01:22:41;97424.00;;;-5.47;63.26
72942;BME280;69665;55.822;37.330;2024-01-15T01:25:07;97397.66;;;-5.61;62.93
72942;BME280;69665;55.822;37.330;2024-01-15T01:27:33;97420.53;;;-5.43;62.85
72942;BME280;69665;55.822;37.330;2024-01-15T01:29:59;97421.31;;;-5.38;62.64
72942;BME280;69665;55.822;37.330;2024-01-15T01:32:24;97422.94;;;-5.28;63.51
72942;BME280;69665;55.822;37.330;2024-01-15T01:34:50;97417.81;;;-5.28;62.80
72942;BME280;69665;55.822;37.330;2024-01-15T01:37:16;97418.66;;;-5.27;63.16
72942;BME280;69665;55.822;37.330;2024-01-15T01:39:42;97394.81;;;-5.37;62.48
72942;BME280;69665;55.822;37.330;2024-01-15T01:42:08;97399.84;;;-5.28;61.72
72942;BME280;69665;55.822;37.330;2024-01-15T01:44:34;97415.22;;;-5.26;62.92
72942;BME280;69665;55.822;37.330;2024-01-15T01:47:00;97402.38;;;-5.25;62.81
72942;BME280;69665;55.822;37.330;2024-01-15T01:49:27;97399.78;;;-5.22;63.16
72942;BME280;69665;55.822;37.330;2024-01-15T01:51:53;97404.94;;;-5.23;63.18
72942;BME280;69665;55.822;37.330;2024-01-15T01:54:20;97398.00;;;-5.18;62.60
72942;BME280;69665;55.822;37.330;2024-01-15T01:56:47;97407.31;;;-5.09;62.61
72942;BME280;69665;55.822;37.330;2024-01-15T01:59:14;97388.47;;;-5.05;62.86
72942;BME280;69665;55.822;37.330;2024-01-15T02:01:40;97383.34;;;-5.07;62.21
72942;BME280;69665;55.822;37.330;2024-01-15T02:04:07;97384.94;;;-4.97;62.21
72942;BME280;69665;55.822;37.330;2024-01-15T02:06:34;97375.56;;;-5.01;62.63
72942;BME280;69665;55.822;37.330;2024-01-15T02:08:59;97366.97;;;-4.97;61.82
72942;BME280;69665;55.822;37.330;2024-01-15T02:11:26;97368.59;;;-4.93;62.30
72942;BME280;69665;55.822;37.330;2024-01-15T02:13:52;97377.91;;;-4.84;62.96
72942;BME280;69665;55.822;37.330;2024-01-15T02:16:17;97387.28;;;-4.83;62.30
72942;BME280;69665;55.822;37.330;2024-01-15T02:18:45;97363.34;;;-4.84;62.37
72942;BME280;69665;55.822;37.330;2024-01-15T02:21:33;97383.72;;;-4.71;62.94
72942;BME280;69665;55.822;37.330;2024-01-15T02:24:01;97380.28;;;-4.69;62.86
72942;BME280;69665;55.822;37.330;2024-01-15T02:26:26;97362.47;;;-4.81;62.51
72942;BME280;69665;55.822;37.330;2024-01-15T02:28:52;97335.28;;;-4.94;61.71
72942;BME280;69665;55.822;37.330;2024-01-15T02:31:17;97369.25;;;-4.77;61.99
72942;BME280;69665;55.822;37.330;2024-01-15T02:33:43;97353.91;;;-4.80;62.50
72942;BME280;69665;55.822;37.330;2024-01-15T02:36:11;97377.69;;;-4.69;61.45
72942;BME280;69665;55.822;37.330;2024-01-15T02:38:37;97359.84;;;-4.76;62.32
72942;BME280;69665;55.822;37.330;2024-01-15T02:41:03;97374.09;;;-4.59;62.37
72942;BME280;69665;55.822;37.330;2024-01-15T02:43:29;97385.22;;;-4.57;61.87
72942;BME280;69665;55.822;37.330;2024-01-15T02:45:55;97375.88;;;-4.64;61.87
72942;BME280;69665;55.822;37.330;2024-01-15T02:48:20;97365.63;;;-4.65;61.37
72942;BME280;69665;55.822;37.330;2024-01-15T02:50:46;97380.03;;;-4.54;62.63
72942;BME280;69665;55.822;37.330;2024-01-15T02:53:12;97389.47;;;-4.56;62.54
72942;BME280;69665;55.822;37.330;2024-01-15T02:55:37;97376.63;;;-4.54;62.07
72942;BME280;69665;55.822;37.330;2024-01-15T02:58:03;97372.28;;;-4.51;62.30
72942;BME280;69665;55.822;37.330;2024-01-15T03:00:29;97380.78;;;-4.47;62.36
72942;BME280;69665;55.822;37.330;2024-01-15T03:02:55;97335.66;;;-4.63;61.94
72942;BME280;69665;55.822;37.330;2024-01-15T03:05:20;97360.25;;;-4.47;62.67
72942;BME280;69665;55.822;37.330;2024-01-15T03:07:46;97363.47;;;-4.36;62.31
72942;BME280;69665;55.822;37.330;2024-01-15T03:10:11;97340.56;;;-4.47;62.04
72942;BME280;69665;55.822;37.330;2024-01-15T03:12:37;97352.25;;;-4.29;62.62
72942;BME280;69665;55.822;37.330;2024-01-15T03:15:03;97359.00;;;-4.23;62.47
72942;BME280;69665;55.822;37.330;2024-01-15T03:17:30;97348.78;;;-4.26;62.14
72942;BME280;69665;55.822;37.330;2024-01-15T03:19:55;97329.13;;;-4.29;62.16
72942;BME280;69665;55.822;37.330;2024-01-15T03:22:21;97351.22;;;-4.17;61.75
72942;BME280;69665;55.822;37.330;2024-01-15T03:24:47;97363.22;;;-4.19;62.87
72942;BME280;69665;55.822;37.330;2024-01-15T03:27:12;97329.94;;;-4.25;62.01
72942;BME280;69665;55.822;37.330;2024-01-15T03:29:39;97335.97;;;-4.28;62.17
72942;BME280;69665;55.822;37.330;2024-01-15T03:32:05;97351.22;;;-4.17;62.03
72942;BME280;69665;55.822;37.330;2024-01-15T03:34:30;97339.22;;;-4.17;63.13
72942;BME280;69665;55.822;37.330;2024-01-15T03:36:56;97336.53;;;-4.12;62.27
72942;BME280;69665;55.822;37.330;2024-01-15T03:39:22;97340.72;;;-4.06;62.79
72942;BME280;69665;55.822;37.330;2024-01-15T03:41:47;97338.03;;;-3.99;62.17
72942;BME280;69665;55.822;37.330;2024-01-15T03:44:13;97340.59;;;-3.99;62.86
72942;BME280;69665;55.822;37.330;2024-01-15T03:46:38;97293.06;;;-4.23;62.86
72942;BME280;69665;55.822;37.330;2024-01-15T03:49:04;97310.88;;;-4.14;62.73
72942;BME280;69665;55.822;37.330;2024-01-15T03:51:30;97329.38;;;-3.93;62.19
72942;BME280;69665;55.822;37.330;2024-01-15T03:53:55;97317.47;;;-3.99;62.68
72942;BME280;69665;55.822;37.330;2024-01-15T03:56:21;97304.66;;;-4.02;62.50
72942;BME280;69665;55.822;37.330;2024-01-15T03:58:46;97331.81;;;-3.89;62.63
72942;BME280;69665;55.822;37.330;2024-01-15T04:01:12;97337.06;;;-3.92;63.03
72942;BME280;69665;55.822;37.330;2024-01-15T04:03:38;97335.41;;;-3.96;62.80
72942;BME280;69665;55.822;37.330;2024-01-15T04:06:04;97334.56;;;-3.96;62.82
72942;BME280;69665;55.822;37.330;2024-01-15T04:08:30;97328.56;;;-3.97;62.76
72942;BME280;69665;55.822;37.330;2024-01-15T04:10:55;97328.41;;;-3.89;62.87
72942;BME280;69665;55.822;37.330;2024-01-15T04:13:21;97307.91;;;-3.91;62.54
72942;BME280;69665;55.822;37.330;2024-01-15T04:15:47;97328.09;;;-3.71;63.64
72942;BME280;69665;55.822;37.330;2024-01-15T04:18:13;97322.03;;;-3.68;63.71
72942;BME280;69665;55.822;37.330;2024-01-15T04:20:38;97329.63;;;-3.62;64.06
72942;BME280;69665;55.822;37.330;2024-01-15T04:23:05;97303.22;;;-3.70;63.48
72942;BME280;69665;55.822;37.330;2024-01-15T04:25:30;97328.59;;;-3.54;63.15
72942;BME280;69665;55.822;37.330;2024-01-15T04:27:56;97296.38;;;-3.71;63.49
72942;BME280;69665;55.822;37.330;2024-01-15T04:30:22;97310.69;;;-3.58;63.35
72942;BME280;69665;55.822;37.330;2024-01-15T04:32:47;97291.19;;;-3.68;63.92
72942;BME280;69665;55.822;37.330;2024-01-15T04:35:13;97306.47;;;-3.62;63.50
72942;BME280;69665;55.822;37.330;2024-01-15T04:37:41;97318.44;;;-3.60;63.90
72942;BME280;69665;55.822;37.330;2024-01-15T04:40:07;97317.63;;;-3.63;64.00
72942;BME280;69665;55.822;37.330;2024-01-15T04:42:33;97314.25;;;-3.64;63.33
72942;BME280;69665;55.822;37.330;2024-01-15T04:44:59;97308.25;;;-3.64;63.76
72942;BME280;69665;55.822;37.330;2024-01-15T04:47:24;97305.44;;;-3.52;63.40
72942;BME280;69665;55.822;37.330;2024-01-15T04:49:50;97318.19;;;-3.48;63.43
72942;BME280;69665;55.822;37.330;2024-01-15T04:52:17;97306.16;;;-3.46;64.11
72942;BME280;69665;55.822;37.330;2024-01-15T04:54:43;97309.63;;;-3.48;63.16
72942;BME280;69665;55.822;37.330;2024-01-15T04:57:08;97312.97;;;-3.43;64.30
72942;BME280;69665;55.822;37.330;2024-01-15T04:59:34;97286.56;;;-3.53;63.38
72942;BME280;69665;55.822;37.330;2024-01-15T05:01:59;97316.25;;;-3.36;64.42
72942;BME280;69665;55.822;37.330;2024-01-15T05:04:25;97310.25;;;-3.37;63.69
72942;BME280;69665;55.822;37.330;2024-01-15T05:06:51;97310.22;;;-3.35;63.64
72942;BME280;69665;55.822;37.330;2024-01-15T05:09:16;97306.75;;;-3.34;63.91
72942;BME280;69665;55.822;37.330;2024-01-15T05:11:43;97296.47;;;-3.34;64.18
72942;BME280;69665;55.822;37.330;2024-01-15T05:14:09;97275.34;;;-3.49;63.57
72942;BME280;69665;55.822;37.330;2024-01-15T05:16:37;97315.25;;;-3.29;64.21
72942;BME280;69665;55.822;37.330;2024-01-15T05:19:03;97311.88;;;-3.33;63.16
72942;BME280;69665;55.822;37.330;2024-01-15T05:21:28;97310.97;;;-3.30;64.71
72942;BME280;69665;55.822;37.330;2024-01-15T05:23:54;97292.31;;;-3.38;64.38
72942;BME280;69665;55.822;37.330;2024-01-15T05:26:20;97316.91;;;-3.27;64.53
72942;BME280;69665;55.822;37.330;2024-01-15T05:28:45;97276.91;;;-3.40;64.51
72942;BME280;69665;55.822;37.330;2024-01-15T05:31:11;97270.97;;;-3.44;63.75
72942;BME280;69665;55.822;37.330;2024-01-15T05:33:37;97298.91;;;-3.27;64.40
72942;BME280;69665;55.822;37.330;2024-01-15T05:36:03;97283.47;;;-3.27;64.36
72942;BME280;69665;55.822;37.330;2024-01-15T05:38:28;97290.94;;;-3.15;63.57
72942;BME280;69665;55.822;37.330;2024-01-15T05:40:54;97301.91;;;-3.08;62.75
72942;BME280;69665;55.822;37.330;2024-01-15T05:43:19;97301.00;;;-3.05;63.68
72942;BME280;69665;55.822;37.330;2024-01-15T05:45:45;97300.09;;;-3.03;63.69
72942;BME280;69665;55.822;37.330;2024-01-15T05:48:11;97311.88;;;-2.93;63.84
72942;BME280;69665;55.822;37.330;2024-01-15T05:50:38;97314.34;;;-2.87;63.58
72942;BME280;69665;55.822;37.330;2024-01-15T05:53:04;97306.44;;;-2.81;63.32
72942;BME280;69665;55.822;37.330;2024-01-15T05:55:29;97304.66;;;-2.77;63.01
72942;BME280;69665;55.822;37.330;2024-01-15T05:57:55;97296.94;;;-2.77;62.95
72942;BME280;69665;55.822;37.330;2024-01-15T06:00:21;97307.09;;;-2.71;64.03
72942;BME280;69665;55.822;37.330;2024-01-15T06:02:47;97275.56;;;-2.82;63.67
72942;BME280;69665;55.822;37.330;2024-01-15T06:05:14;97305.06;;;-2.58;63.58
72942;BME280;69665;55.822;37.330;2024-01-15T06:07:39;97303.31;;;-2.58;63.54
72942;BME280;69665;55.822;37.330;2024-01-15T06:10:05;97302.28;;;-2.49;62.98
72942;BME280;69665;55.822;37.330;2024-01-15T06:12:31;97302.25;;;-2.48;63.53
72942;BME280;69665;55.822;37.330;2024-01-15T06:14:59;97301.34;;;-2.47;62.60
72942;BME280;69665;55.822;37.330;2024-01-15T06:17:24;97265.78;;;-2.66;62.86
72942;BME280;69665;55.822;37.330;2024-01-15T06:19:50;97303.88;;;-2.44;62.92
72942;BME280;69665;55.822;37.330;2024-01-15T06:22:15;97303.81;;;-2.42;63.00
72942;BME280;69665;55.822;37.330;2024-01-15T06:24:41;97296.88;;;-2.38;62.99
72942;BME280;69665;55.822;37.330;2024-01-15T06:27:07;97293.44;;;-2.39;62.72
72942;BME280;69665;55.822;37.330;2024-01-15T06:29:32;97297.66;;;-2.35;62.71
72942;BME280;69665;55.822;37.330;2024-01-15T06:31:58;97295.75;;;-2.28;63.76
72942;BME280;69665;55.822;37.330;2024-01-15T06:34:23;97291.28;;;-2.22;62.81
72942;BME280;69665;55.822;37.330;2024-01-15T06:36:49;97304.09;;;-2.19;62.78
72942;BME280;69665;55.822;37.330;2024-01-15T06:39:15;97299.69;;;-2.14;62.83
72942;BME280;69665;55.822;37.330;2024-01-15T06:41:40;97303.84;;;-2.08;63.13
72942;BME280;69665;55.822;37.330;2024-01-15T06:44:10;97271.38;;;-2.15;63.14
72942;BME280;69665;55.822;37.330;2024-01-15T06:46:36;97297.53;;;-1.98;63.04
72942;BME280;69665;55.822;37.330;2024-01-15T06:49:02;97287.16;;;-1.95;63.07
72942;BME280;69665;55.822;37.330;2024-01-15T06:51:29;97282.31;;;-2.07;62.56
72942;BME280;69665;55.822;37.330;2024-01-15T06:53:54;97301.66;;;-1.91;62.49
72942;BME280;69665;55.822;37.330;2024-01-15T06:56:20;97278.69;;;-2.00;62.94
72942;BME280;69665;55.822;37.330;2024-01-15T06:58:46;97309.28;;;-1.86;62.58
72942;BME280;69665;55.822;37.330;2024-01-15T07:01:11;97299.81;;;-1.86;63.47
72942;BME280;69665;55.822;37.330;2024-01-15T07:03:37;97299.72;;;-1.83;63.36
72942;BME280;69665;55.822;37.330;2024-01-15T07:06:03;97299.63;;;-1.80;63.18
72942;BME280;69665;55.822;37.330;2024-01-15T07:08:29;97302.19;;;-1.80;63.64
72942;BME280;69665;55.822;37.330;2024-01-15T07:10:55;97310.75;;;-1.78;62.82
72942;BME280;69665;55.822;37.330;2024-01-15T07:13:21;97305.53;;;-1.76;62.84
72942;BME280;69665;55.822;37.330;2024-01-15T07:15:46;97290.25;;;-1.82;62.98
72942;BME280;69665;55.822;37.330;2024-01-15T07:18:12;97301.03;;;-1.68;62.57
72942;BME280;69665;55.822;37.330;2024-01-15T07:20:38;97306.06;;;-1.63;62.99
72942;BME280;69665;55.822;37.330;2024-01-15T07:23:04;97294.84;;;-1.61;63.04
72942;BME280;69665;55.822;37.330;2024-01-15T07:25:30;97300.78;;;-1.59;62.92
72942;BME280;69665;55.822;37.330;2024-01-15T07:27:56;97308.53;;;-1.59;64.78
72942;BME280;69665;55.822;37.330;2024-01-15T07:30:21;97300.75;;;-1.57;64.28
72942;BME280;69665;55.822;37.330;2024-01-15T07:32:47;97275.25;;;-1.68;63.83
72942;BME280;69665;55.822;37.330;2024-01-15T07:35:14;97304.97;;;-1.55;63.75
72942;BME280;69665;55.822;37.330;2024-01-15T07:37:41;97303.91;;;-1.48;63.33
72942;BME280;69665;55.822;37.330;2024-01-15T07:40:08;97295.41;;;-1.51;63.49
72942;BME280;69665;55.822;37.330;2024-01-15T07:42:34;97292.56;;;-1.42;63.60
72942;BME280;69665;55.822;37.330;2024-01-15T07:45:00;97286.53;;;-1.41;63.65
72942;BME280;69665;55.822;37.330;2024-01-15T07:47:26;97307.03;;;-1.37;63.62
72942;BME280;69665;55.822;37.330;2024-01-15T07:49:53;97301.59;;;-1.27;64.26
72942;BME280;69665;55.822;37.330;2024-01-15T07:52:19;97275.81;;;-1.29;63.81
72942;BME280;69665;55.822;37.330;2024-01-15T07:54:45;97290.09;;;-1.16;63.49
72942;BME280;69665;55.822;37.330;2024-01-15T07:57:11;97279.63;;;-1.11;63.20
72942;BME280;69665;55.822;37.330;2024-01-15T07:59:36;97292.78;;;-0.91;63.49
72942;BME280;69665;55.822;37.330;2024-01-15T08:02:02;97290.94;;;-0.87;63.16
72942;BME280;69665;55.822;37.330;2024-01-15T08:04:28;97275.50;;;-0.89;63.67
72942;BME280;69665;55.822;37.330;2024-01-15T08:06:54;97291.94;;;-0.63;62.72
72942;BME280;69665;55.822;37.330;2024-01-15T08:09:20;97285.50;;;-0.52;63.25
72942;BME280;69665;55.822;37.330;2024-01-15T08:11:45;97274.22;;;-0.49;62.67
72942;BME280;69665;55.822;37.330;2024-01-15T08:14:11;97311.59;;;-0.31;62.33
72942;BME280;69665;55.822;37.330;2024-01-15T08:16:37;97291.59;;;-0.26;62.76
72942;BME280;69665;55.822;37.330;2024-01-15T08:19:03;97293.81;;;0.09;62.74
72942;BME280;69665;55.822;37.330;2024-01-15T08:21:29;97263.69;;;0.08;62.39
72942;BME280;69665;55.822;37.330;2024-01-15T08:24:00;97293.72;;;0.37;62.06
72942;BME280;69665;55.822;37.330;2024-01-15T08:26:25;97290.28;;;0.37;61.19
72942;BME280;69665;55.822;37.330;2024-01-15T08:28:51;97265.75;;;0.23;61.75
72942;BME280;69665;55.822;37.330;2024-01-15T08:31:17;97284.84;;;0.44;62.08
72942;BME280;69665;55.822;37.330;2024-01-15T08:33:43;97270.38;;;0.39;60.76
72942;BME280;69665;55.822;37.330;2024-01-15T08:36:12;97288.81;;;0.53;61.03
72942;BME280;69665;55.822;37.330;2024-01-15T08:38:38;97274.06;;;0.55;60.98
72942;BME280;69665;55.822;37.330;2024-01-15T08:41:04;97290.03;;;0.67;60.74
72942;BME280;69665;55.822;37.330;2024-01-15T08:43:30;97294.94;;;0.75;61.58
72942;BME280;69665;55.822;37.330;2024-01-15T08:45:59;97288.56;;;0.84;60.08
72942;BME280;69665;55.822;37.330;2024-01-15T08:48:26;97295.59;;;0.80;60.69
72942;BME280;69665;55.822;37.330;2024-01-15T08:50:54;97288.13;;;0.73;61.02
72942;BME280;69665;55.822;37.330;2024-01-15T08:53:21;97267.22;;;0.54;60.14
72942;BME280;69665;55.822;37.330;2024-01-15T08:55:47;97296.44;;;0.57;60.01
72942;BME280;69665;55.822;37.330;2024-01-15T08:58:13;97273.69;;;0.42;60.24
72942;BME280;69665;55.822;37.330;2024-01-15T09:00:39;97301.13;;;0.48;60.69
72942;BME280;69665;55.822;37.330;2024-01-15T09:03:05;97283.53;;;0.32;60.07
72942;BME280;69665;55.822;37.330;2024-01-15T09:05:32;97288.53;;;0.37;60.40
72942;BME280;69665;55.822;37.330;2024-01-15T09:07:58;97298.84;;;0.39;60.46
72942;BME280;69665;55.822;37.330;2024-01-15T09:10:24;97285.91;;;0.39;60.35
72942;BME280;69665;55.822;37.330;2024-01-15T09:12:50;97290.19;;;0.40;60.81
72942;BME280;69665;55.822;37.330;2024-01-15T09:15:15;97291.91;;;0.39;60.80
72942;BME280;69665;55.822;37.330;2024-01-15T09:17:41;97283.47;;;0.34;60.68
72942;BME280;69665;55.822;37.330;2024-01-15T09:20:08;97246.47;;;0.07;60.93
72942;BME280;69665;55.822;37.330;2024-01-15T09:22:34;97247.50;;;0.02;60.30
72942;BME280;69665;55.822;37.330;2024-01-15T09:25:00;97258.28;;;0.14;60.62
72942;BME280;69665;55.822;37.330;2024-01-15T09:27:26;97270.88;;;0.25;61.07
72942;BME280;69665;55.822;37.330;2024-01-15T09:29:52;97287.59;;;0.40;60.73
72942;BME280;69665;55.822;37.330;2024-01-15T09:32:18;97270.47;;;0.36;60.28
72942;BME280;69665;55.822;37.330;2024-01-15T09:34:44;97275.44;;;0.42;60.22
72942;BME280;69665;55.822;37.330;2024-01-15T09:37:10;97271.22;;;0.39;60.58
72942;BME280;69665;55.822;37.330;2024-01-15T09:39:35;97288.53;;;0.37;60.32
72942;BME280;69665;55.822;37.330;2024-01-15T09:42:02;97272.66;;;0.23;61.40
72942;BME280;69665;55.822;37.330;2024-01-15T09:44:28;97282.63;;;0.33;61.32
72942;BME280;69665;55.822;37.330;2024-01-15T09:46:55;97273.66;;;0.19;61.86
72942;BME280;69665;55.822;37.330;2024-01-15T09:49:21;97294.03;;;0.28;62.34
72942;BME280;69665;55.822;37.330;2024-01-15T09:51:47;97299.09;;;0.31;62.11
72942;BME280;69665;55.822;37.330;2024-01-15T09:54:12;97295.41;;;0.38;61.79
72942;BME280;69665;55.822;37.330;2024-01-15T09:56:38;97267.53;;;0.21;62.14
72942;BME280;69665;55.822;37.330;2024-01-15T09:59:05;97293.72;;;0.37;61.75
72942;BME280;69665;55.822;37.330;2024-01-15T10:01:31;97287.69;;;0.37;61.46
72942;BME280;69665;55.822;37.330;2024-01-15T10:03:57;97285.56;;;0.48;61.97
72942;BME280;69665;55.822;37.330;2024-01-15T10:06:26;97294.63;;;0.59;61.54
72942;BME280;69665;55.822;37.330;2024-01-15T10:08:53;97283.31;;;0.62;61.78
72942;BME280;69665;55.822;37.330;2024-01-15T10:11:19;97288.28;;;0.68;60.79
72942;BME280;69665;55.822;37.330;2024-01-15T10:13:45;97296.56;;;0.78;61.66
72942;BME280;69665;55.822;37.330;2024-01-15T10:16:12;97254.91;;;0.60;61.35
72942;BME280;69665;55.822;37.330;2024-01-15T10:18:37;97296.25;;;0.85;61.48
72942;BME280;69665;55.822;37.330;2024-01-15T10:21:08;97301.28;;;0.90;61.22
72942;BME280;69665;55.822;37.330;2024-01-15T10:23:33;97291.03;;;0.87;60.90
72942;BME280;69665;55.822;37.330;2024-01-15T10:26:00;97290.28;;;0.83;61.03
72942;BME280;69665;55.822;37.330;2024-01-15T10:28:26;97269.25;;;0.69;60.97
72942;BME280;69665;55.822;37.330;2024-01-15T10:30:55;97293.28;;;0.73;61.32
72942;BME280;69665;55.822;37.330;2024-01-15T10:33:24;97288.22;;;0.70;61.51
72942;BME280;69665;55.822;37.330;2024-01-15T10:35:54;97294.94;;;0.75;61.79
72942;BME280;69665;55.822;37.330;2024-01-15T10:38:21;97287.81;;;0.80;60.92
72942;BME280;69665;55.822;37.330;2024-01-15T10:40:53;97293.97;;;0.78;61.46
72942;BME280;69665;55.822;37.330;2024-01-15T10:43:20;97294.63;;;0.83;61.58
72942;BME280;69665;55.822;37.330;2024-01-15T10:45:47;97276.88;;;0.74;60.91
72942;BME280;69665;55.822;37.330;2024-01-15T10:48:13;97259.22;;;0.60;61.53
72942;BME280;69665;55.822;37.330;2024-01-15T10:50:39;97296.78;;;0.72;61.67
72942;BME280;69665;55.822;37.330;2024-01-15T10:53:05;97265.41;;;0.56;61.74
72942;BME280;69665;55.822;37.330;2024-01-15T10:55:32;97285.97;;;0.60;61.99
72942;BME280;69665;55.822;37.330;2024-01-15T10:57:59;97281.56;;;0.62;61.91
72942;BME280;69665;55.822;37.330;2024-01-15T11:00:25;97281.56;;;0.62;61.90
72942;BME280;69665;55.822;37.330;2024-01-15T11:02:52;97265.47;;;0.54;61.88
72942;BME280;69665;55.822;37.330;2024-01-15T11:05:21;97281.53;;;0.64;61.39
72942;BME280;69665;55.822;37.330;2024-01-15T11:07:50;97261.44;;;0.47;61.53
72942;BME280;69665;55.822;37.330;2024-01-15T11:10:42;97288.44;;;0.63;61.24
72942;BME280;69665;55.822;37.330;2024-01-15T11:16:01;97283.38;;;0.60;61.87
72942;BME280;69665;55.822;37.330;2024-01-15T11:18:32;97279.88;;;0.61;62.16
72942;BME280;69665;55.822;37.330;2024-01-15T11:23:43;97282.69;;;0.55;62.12
72942;BME280;69665;55.822;37.330;2024-01-15T11:28:54;97259.06;;;0.41;61.91
72942;BME280;69665;55.822;37.330;2024-01-15T11:34:07;97277.69;;;0.51;62.02
72942;BME280;69665;55.822;37.330;2024-01-15T11:41:56;97277.34;;;0.60;62.41
72942;BME280;69665;55.822;37.330;2024-01-15T11:44:22;97273.00;;;0.60;62.45
72942;BME280;69665;55.822;37.330;2024-01-15T11:46:57;97266.09;;;0.61;62.31
72942;BME280;69665;55.822;37.330;2024-01-15T11:52:23;97269.59;;;0.60;62.68
72942;BME280;69665;55.822;37.330;2024-01-15T11:54:56;97249.50;;;0.43;62.64
72942;BME280;69665;55.822;37.330;2024-01-15T11:57:40;97278.13;;;0.62;62.52
72942;BME280;69665;55.822;37.330;2024-01-15T12:00:06;97219.88;;;0.27;62.40
72942;BME280;69665;55.822;37.330;2024-01-15T12:02:43;97285.97;;;0.60;62.99
72942;BME280;69665;55.822;37.330;2024-01-15T12:05:15;97278.25;;;0.59;62.36
72942;BME280;69665;55.822;37.330;2024-01-15T12:07:42;97273.06;;;0.59;63.27
72942;BME280;69665;55.822;37.330;2024-01-15T12:10:16;97273.81;;;0.62;63.41
72942;BME280;69665;55.822;37.330;2024-01-15T12:15:19;97265.97;;;0.64;62.63
72942;BME280;69665;55.822;37.330;2024-01-15T12:17:45;97254.25;;;0.54;62.86
72942;BME280;69665;55.822;37.330;2024-01-15T12:20:11;97239.81;;;0.48;62.98
72942;BME280;69665;55.822;37.330;2024-01-15T12:22:38;97261.66;;;0.64;62.98
72942;BME280;69665;55.822;37.330;2024-01-15T12:25:04;97255.94;;;0.55;62.97
72942;BME280;69665;55.822;37.330;2024-01-15T12:27:30;97265.34;;;0.57;62.94
72942;BME280;69665;55.822;37.330;2024-01-15T12:29:56;97265.47;;;0.54;63.20
72942;BME280;69665;55.822;37.330;2024-01-15T12:32:22;97255.25;;;0.51;62.69
72942;BME280;69665;55.822;37.330;2024-01-15T12:34:50;97267.88;;;0.59;63.34
72942;BME280;69665;55.822;37.330;2024-01-15T12:37:18;97274.03;;;0.56;63.54
72942;BME280;69665;55.822;37.330;2024-01-15T12:39:44;97271.44;;;0.56;63.86
72942;BME280;69665;55.822;37.330;2024-01-15T12:42:10;97233.66;;;0.27;63.50
72942;BME280;69665;55.822;37.330;2024-01-15T12:44:36;97270.03;;;0.48;63.41
72942;BME280;69665;55.822;37.330;2024-01-15T12:47:06;97277.75;;;0.49;63.53
72942;BME280;69665;55.822;37.330;2024-01-15T12:49:32;97275.28;;;0.46;63.53
72942;BME280;69665;55.822;37.330;2024-01-15T12:51:59;97266.72;;;0.44;63.50
72942;BME280;69665;55.822;37.330;2024-01-15T12:54:26;97271.78;;;0.47;63.53
72942;BME280;69665;55.822;37.330;2024-01-15T12:56:52;97281.13;;;0.51;63.80
72942;BME280;69665;55.822;37.330;2024-01-15T12:59:18;97280.22;;;0.52;63.98
72942;BME280;69665;55.822;37.330;2024-01-15T13:01:47;97274.13;;;0.53;63.90
72942;BME280;69665;55.822;37.330;2024-01-15T13:04:22;97280.41;;;0.48;63.53
72942;BME280;69665;55.822;37.330;2024-01-15T13:06:49;97261.19;;;0.30;63.90
72942;BME280;69665;55.822;37.330;2024-01-15T13:09:15;97275.59;;;0.37;63.79
72942;BME280;69665;55.822;37.330;2024-01-15T13:11:41;97285.22;;;0.33;63.76